sensor_id;sensor_type;location;lat;lon;timestamp;P1;durP1;ratioP1;P2;durP2;ratioP2
43256;SDS011;28860;43.212;27.934;2022-10-28T00:04:03;32.22;;;22.75;;
43256;SDS011;28860;43.212;27.934;2022-10-28T00:06:33;39.08;;;22.38;;
43256;SDS011;28860;43.212;27.934;2022-10-28T00:11:29;31.25;;;22.55;;
43256;SDS011;28860;43.212;27.934;2022-10-28T00:13:58;37.22;;;24.23;;
43256;SDS011;28860;43.212;27.934;2022-10-28T00:16:38;34.78;;;22.95;;
43256;SDS011;28860;43.212;27.934;2022-10-28T00:19:04;30.05;;;22.20;;
43256;SDS011;28860;43.212;27.934;2022-10-28T00:21:38;37.88;;;22.95;;
43256;SDS011;28860;43.212;27.934;2022-10-28T00:24:08;28.85;;;21.20;;
43256;SDS011;28860;43.212;27.934;2022-10-28T00:26:36;26.02;;;20.38;;
43256;SDS011;28860;43.212;27.934;2022-10-28T00:29:14;26.65;;;18.95;;
43256;SDS011;28860;43.212;27.934;2022-10-28T00:31:43;26.80;;;18.73;;
43256;SDS011;28860;43.212;27.934;2022-10-28T00:34:19;26.58;;;17.33;;
43256;SDS011;28860;43.212;27.934;2022-10-28T00:36:48;26.70;;;17.17;;
43256;SDS011;28860;43.212;27.934;2022-10-28T00:39:21;28.40;;;17.30;;
43256;SDS011;28860;43.212;27.934;2022-10-28T00:41:50;26.10;;;17.85;;
43256;SDS011;28860;43.212;27.934;2022-10-28T00:47:36;22.42;;;16.77;;
43256;SDS011;28860;43.212;27.934;2022-10-28T00:53:25;30.42;;;18.48;;
43256;SDS011;28860;43.212;27.934;2022-10-28T00:55:56;33.33;;;19.98;;
43256;SDS011;28860;43.212;27.934;2022-10-28T00:58:30;29.85;;;19.42;;
43256;SDS011;28860;43.212;27.934;2022-10-28T01:00:57;31.50;;;19.70;;
43256;SDS011;28860;43.212;27.934;2022-10-28T01:03:26;31.83;;;19.27;;
43256;SDS011;28860;43.212;27.934;2022-10-28T01:05:52;34.55;;;21.23;;
43256;SDS011;28860;43.212;27.934;2022-10-28T01:08:27;36.80;;;21.65;;
43256;SDS011;28860;43.212;27.934;2022-10-28T01:11:00;33.30;;;21.08;;
43256;SDS011;28860;43.212;27.934;2022-10-28T01:13:54;31.98;;;20.00;;
43256;SDS011;28860;43.212;27.934;2022-10-28T01:16:57;29.30;;;19.02;;
43256;SDS011;28860;43.212;27.934;2022-10-28T01:20:26;39.33;;;20.45;;
43256;SDS011;28860;43.212;27.934;2022-10-28T01:28:35;31.25;;;17.42;;
43256;SDS011;28860;43.212;27.934;2022-10-28T01:31:37;29.80;;;18.83;;
43256;SDS011;28860;43.212;27.934;2022-10-28T01:37:33;29.38;;;18.42;;
43256;SDS011;28860;43.212;27.934;2022-10-28T01:40:11;34.38;;;19.73;;
43256;SDS011;28860;43.212;27.934;2022-10-28T01:46:08;50.45;;;28.40;;
43256;SDS011;28860;43.212;27.934;2022-10-28T01:48:51;59.10;;;33.45;;
43256;SDS011;28860;43.212;27.934;2022-10-28T01:51:28;59.60;;;32.97;;
43256;SDS011;28860;43.212;27.934;2022-10-28T01:54:08;68.60;;;37.88;;
43256;SDS011;28860;43.212;27.934;2022-10-28T01:56:40;72.72;;;37.63;;
43256;SDS011;28860;43.212;27.934;2022-10-28T01:59:08;63.03;;;34.65;;
43256;SDS011;28860;43.212;27.934;2022-10-28T02:01:37;56.95;;;31.73;;
43256;SDS011;28860;43.212;27.934;2022-10-28T02:04:07;47.47;;;27.15;;
43256;SDS011;28860;43.212;27.934;2022-10-28T02:06:33;37.15;;;23.92;;
43256;SDS011;28860;43.212;27.934;2022-10-28T02:15:03;34.03;;;18.70;;
43256;SDS011;28860;43.212;27.934;2022-10-28T02:17:55;32.20;;;18.63;;
43256;SDS011;28860;43.212;27.934;2022-10-28T02:26:09;27.40;;;18.00;;
43256;SDS011;28860;43.212;27.934;2022-10-28T02:29:03;27.65;;;18.27;;
43256;SDS011;28860;43.212;27.934;2022-10-28T02:31:49;31.88;;;19.50;;
43256;SDS011;28860;43.212;27.934;2022-10-28T02:34:41;32.78;;;19.05;;
43256;SDS011;28860;43.212;27.934;2022-10-28T02:37:15;34.60;;;19.75;;
43256;SDS011;28860;43.212;27.934;2022-10-28T02:39:52;36.15;;;20.17;;
43256;SDS011;28860;43.212;27.934;2022-10-28T02:42:29;39.40;;;22.38;;
43256;SDS011;28860;43.212;27.934;2022-10-28T02:45:08;35.83;;;22.13;;
43256;SDS011;28860;43.212;27.934;2022-10-28T02:47:42;39.00;;;25.25;;
43256;SDS011;28860;43.212;27.934;2022-10-28T02:50:13;44.47;;;27.67;;
43256;SDS011;28860;43.212;27.934;2022-10-28T02:55:18;58.03;;;30.92;;
43256;SDS011;28860;43.212;27.934;2022-10-28T02:57:48;51.38;;;32.53;;
43256;SDS011;28860;43.212;27.934;2022-10-28T03:00:20;51.40;;;33.65;;
43256;SDS011;28860;43.212;27.934;2022-10-28T03:02:48;50.13;;;32.58;;
43256;SDS011;28860;43.212;27.934;2022-10-28T03:05:16;53.92;;;32.30;;
43256;SDS011;28860;43.212;27.934;2022-10-28T03:07:45;47.03;;;30.42;;
43256;SDS011;28860;43.212;27.934;2022-10-28T03:10:17;45.45;;;30.05;;
43256;SDS011;28860;43.212;27.934;2022-10-28T03:12:44;46.03;;;29.40;;
43256;SDS011;28860;43.212;27.934;2022-10-28T03:15:11;44.17;;;27.55;;
43256;SDS011;28860;43.212;27.934;2022-10-28T03:17:40;42.17;;;29.65;;
43256;SDS011;28860;43.212;27.934;2022-10-28T03:20:06;53.30;;;30.42;;
43256;SDS011;28860;43.212;27.934;2022-10-28T03:22:34;57.42;;;30.48;;
43256;SDS011;28860;43.212;27.934;2022-10-28T03:25:00;49.10;;;34.33;;
43256;SDS011;28860;43.212;27.934;2022-10-28T03:27:30;54.35;;;33.25;;
43256;SDS011;28860;43.212;27.934;2022-10-28T03:29:57;63.53;;;33.45;;
43256;SDS011;28860;43.212;27.934;2022-10-28T03:32:27;87.78;;;32.28;;
43256;SDS011;28860;43.212;27.934;2022-10-28T03:34:53;64.10;;;32.28;;
43256;SDS011;28860;43.212;27.934;2022-10-28T03:37:22;117.50;;;33.65;;
43256;SDS011;28860;43.212;27.934;2022-10-28T03:39:49;58.28;;;33.13;;
43256;SDS011;28860;43.212;27.934;2022-10-28T03:42:16;88.75;;;33.72;;
43256;SDS011;28860;43.212;27.934;2022-10-28T03:44:47;93.57;;;32.88;;
43256;SDS011;28860;43.212;27.934;2022-10-28T03:47:18;58.28;;;34.95;;
43256;SDS011;28860;43.212;27.934;2022-10-28T03:49:44;52.88;;;35.00;;
43256;SDS011;28860;43.212;27.934;2022-10-28T03:52:13;75.45;;;32.80;;
43256;SDS011;28860;43.212;27.934;2022-10-28T03:54:42;56.13;;;34.25;;
43256;SDS011;28860;43.212;27.934;2022-10-28T03:57:12;60.45;;;34.90;;
43256;SDS011;28860;43.212;27.934;2022-10-28T03:59:41;81.88;;;35.80;;
43256;SDS011;28860;43.212;27.934;2022-10-28T04:02:09;99.18;;;34.97;;
43256;SDS011;28860;43.212;27.934;2022-10-28T04:04:40;69.78;;;35.38;;
43256;SDS011;28860;43.212;27.934;2022-10-28T04:07:13;72.63;;;37.03;;
43256;SDS011;28860;43.212;27.934;2022-10-28T04:09:38;111.53;;;40.75;;
43256;SDS011;28860;43.212;27.934;2022-10-28T04:12:07;142.27;;;43.58;;
43256;SDS011;28860;43.212;27.934;2022-10-28T04:14:34;202.85;;;49.90;;
43256;SDS011;28860;43.212;27.934;2022-10-28T04:17:05;203.98;;;56.05;;
43256;SDS011;28860;43.212;27.934;2022-10-28T04:19:32;229.43;;;61.58;;
43256;SDS011;28860;43.212;27.934;2022-10-28T04:22:01;222.43;;;68.60;;
43256;SDS011;28860;43.212;27.934;2022-10-28T04:24:27;258.58;;;72.20;;
43256;SDS011;28860;43.212;27.934;2022-10-28T04:26:53;247.25;;;75.25;;
43256;SDS011;28860;43.212;27.934;2022-10-28T04:29:19;197.55;;;78.00;;
43256;SDS011;28860;43.212;27.934;2022-10-28T04:31:48;197.98;;;79.10;;
43256;SDS011;28860;43.212;27.934;2022-10-28T04:34:15;242.07;;;80.07;;
43256;SDS011;28860;43.212;27.934;2022-10-28T04:36:44;174.05;;;80.88;;
43256;SDS011;28860;43.212;27.934;2022-10-28T04:39:12;250.63;;;79.45;;
43256;SDS011;28860;43.212;27.934;2022-10-28T04:41:40;201.90;;;81.63;;
43256;SDS011;28860;43.212;27.934;2022-10-28T04:44:09;252.70;;;80.40;;
43256;SDS011;28860;43.212;27.934;2022-10-28T04:46:36;191.82;;;78.88;;
43256;SDS011;28860;43.212;27.934;2022-10-28T04:49:03;200.68;;;73.65;;
43256;SDS011;28860;43.212;27.934;2022-10-28T04:51:31;133.10;;;75.32;;
43256;SDS011;28860;43.212;27.934;2022-10-28T04:53:59;124.10;;;71.57;;
43256;SDS011;28860;43.212;27.934;2022-10-28T04:56:25;107.78;;;61.00;;
43256;SDS011;28860;43.212;27.934;2022-10-28T04:58:51;100.40;;;59.17;;
43256;SDS011;28860;43.212;27.934;2022-10-28T05:01:17;99.22;;;57.10;;
43256;SDS011;28860;43.212;27.934;2022-10-28T05:03:45;94.45;;;55.92;;
43256;SDS011;28860;43.212;27.934;2022-10-28T05:06:15;89.93;;;54.40;;
43256;SDS011;28860;43.212;27.934;2022-10-28T05:08:43;96.10;;;55.30;;
43256;SDS011;28860;43.212;27.934;2022-10-28T05:11:17;101.82;;;56.00;;
43256;SDS011;28860;43.212;27.934;2022-10-28T05:13:45;106.75;;;56.42;;
43256;SDS011;28860;43.212;27.934;2022-10-28T05:16:12;109.68;;;55.70;;
43256;SDS011;28860;43.212;27.934;2022-10-28T05:18:39;107.20;;;53.17;;
43256;SDS011;28860;43.212;27.934;2022-10-28T05:21:09;98.82;;;52.50;;
43256;SDS011;28860;43.212;27.934;2022-10-28T05:23:36;119.07;;;52.00;;
43256;SDS011;28860;43.212;27.934;2022-10-28T05:26:04;99.20;;;50.53;;
43256;SDS011;28860;43.212;27.934;2022-10-28T05:28:37;100.38;;;48.45;;
43256;SDS011;28860;43.212;27.934;2022-10-28T05:31:03;85.45;;;44.97;;
43256;SDS011;28860;43.212;27.934;2022-10-28T05:33:31;89.15;;;43.53;;
43256;SDS011;28860;43.212;27.934;2022-10-28T05:35:59;84.70;;;41.17;;
43256;SDS011;28860;43.212;27.934;2022-10-28T05:38:28;83.07;;;40.13;;
43256;SDS011;28860;43.212;27.934;2022-10-28T05:40:59;84.85;;;37.92;;
43256;SDS011;28860;43.212;27.934;2022-10-28T05:43:28;76.30;;;37.63;;
43256;SDS011;28860;43.212;27.934;2022-10-28T05:45:58;67.32;;;35.28;;
43256;SDS011;28860;43.212;27.934;2022-10-28T05:48:26;75.32;;;36.65;;
43256;SDS011;28860;43.212;27.934;2022-10-28T05:50:58;73.63;;;36.72;;
43256;SDS011;28860;43.212;27.934;2022-10-28T05:53:27;78.00;;;39.00;;
43256;SDS011;28860;43.212;27.934;2022-10-28T05:55:57;78.65;;;39.50;;
43256;SDS011;28860;43.212;27.934;2022-10-28T05:58:32;84.15;;;43.03;;
43256;SDS011;28860;43.212;27.934;2022-10-28T06:01:06;86.78;;;43.78;;
43256;SDS011;28860;43.212;27.934;2022-10-28T06:03:35;89.75;;;45.85;;
43256;SDS011;28860;43.212;27.934;2022-10-28T06:06:02;104.93;;;47.33;;
43256;SDS011;28860;43.212;27.934;2022-10-28T06:08:34;89.85;;;46.92;;
43256;SDS011;28860;43.212;27.934;2022-10-28T06:11:06;98.43;;;48.80;;
43256;SDS011;28860;43.212;27.934;2022-10-28T06:14:25;99.78;;;50.33;;
43256;SDS011;28860;43.212;27.934;2022-10-28T06:17:12;118.65;;;53.60;;
43256;SDS011;28860;43.212;27.934;2022-10-28T06:20:05;139.32;;;57.03;;
43256;SDS011;28860;43.212;27.934;2022-10-28T06:22:44;149.75;;;62.97;;
43256;SDS011;28860;43.212;27.934;2022-10-28T06:25:40;177.15;;;65.63;;
43256;SDS011;28860;43.212;27.934;2022-10-28T06:28:39;169.18;;;67.13;;
43256;SDS011;28860;43.212;27.934;2022-10-28T06:31:18;146.80;;;62.90;;
43256;SDS011;28860;43.212;27.934;2022-10-28T06:33:46;121.35;;;54.17;;
43256;SDS011;28860;43.212;27.934;2022-10-28T06:36:17;118.07;;;54.83;;
43256;SDS011;28860;43.212;27.934;2022-10-28T06:38:43;115.68;;;54.80;;
43256;SDS011;28860;43.212;27.934;2022-10-28T06:41:12;126.28;;;57.13;;
43256;SDS011;28860;43.212;27.934;2022-10-28T06:43:45;126.97;;;56.70;;
43256;SDS011;28860;43.212;27.934;2022-10-28T06:46:12;121.47;;;57.10;;
43256;SDS011;28860;43.212;27.934;2022-10-28T06:48:45;116.18;;;54.97;;
43256;SDS011;28860;43.212;27.934;2022-10-28T07:13:57;100.22;;;49.47;;
43256;SDS011;28860;43.212;27.934;2022-10-28T07:19:13;96.07;;;46.35;;
43256;SDS011;28860;43.212;27.934;2022-10-28T07:21:40;89.95;;;44.80;;
43256;SDS011;28860;43.212;27.934;2022-10-28T07:29:17;90.35;;;46.03;;
43256;SDS011;28860;43.212;27.934;2022-10-28T07:34:51;90.88;;;45.20;;
43256;SDS011;28860;43.212;27.934;2022-10-28T07:37:36;87.88;;;42.70;;
43256;SDS011;28860;43.212;27.934;2022-10-28T07:40:05;81.35;;;41.78;;
43256;SDS011;28860;43.212;27.934;2022-10-28T07:42:45;90.32;;;43.00;;
43256;SDS011;28860;43.212;27.934;2022-10-28T07:45:15;83.25;;;41.55;;
43256;SDS011;28860;43.212;27.934;2022-10-28T07:47:47;84.68;;;41.97;;
43256;SDS011;28860;43.212;27.934;2022-10-28T07:50:28;76.25;;;39.75;;
43256;SDS011;28860;43.212;27.934;2022-10-28T07:53:32;74.80;;;38.13;;
43256;SDS011;28860;43.212;27.934;2022-10-28T08:01:17;79.40;;;40.28;;
43256;SDS011;28860;43.212;27.934;2022-10-28T08:04:40;85.70;;;40.60;;
43256;SDS011;28860;43.212;27.934;2022-10-28T08:07:21;80.10;;;41.63;;
43256;SDS011;28860;43.212;27.934;2022-10-28T08:09:56;83.38;;;41.83;;
43256;SDS011;28860;43.212;27.934;2022-10-28T08:12:50;86.40;;;44.00;;
43256;SDS011;28860;43.212;27.934;2022-10-28T08:16:19;81.93;;;42.70;;
43256;SDS011;28860;43.212;27.934;2022-10-28T08:18:47;77.10;;;43.03;;
43256;SDS011;28860;43.212;27.934;2022-10-28T08:21:16;83.95;;;43.17;;
43256;SDS011;28860;43.212;27.934;2022-10-28T08:23:43;77.35;;;40.90;;
43256;SDS011;28860;43.212;27.934;2022-10-28T09:32:35;38.20;;;20.40;;
43256;SDS011;28860;43.212;27.934;2022-10-28T09:35:05;37.72;;;19.15;;
43256;SDS011;28860;43.212;27.934;2022-10-28T09:37:55;46.47;;;22.80;;
43256;SDS011;28860;43.212;27.934;2022-10-28T09:40:33;36.88;;;21.10;;
43256;SDS011;28860;43.212;27.934;2022-10-28T09:46:01;24.58;;;14.82;;
43256;SDS011;28860;43.212;27.934;2022-10-28T09:48:36;20.27;;;11.68;;
43256;SDS011;28860;43.212;27.934;2022-10-28T09:51:22;24.77;;;12.18;;
43256;SDS011;28860;43.212;27.934;2022-10-28T09:54:15;18.77;;;11.77;;
43256;SDS011;28860;43.212;27.934;2022-10-28T09:56:46;26.08;;;10.48;;
43256;SDS011;28860;43.212;27.934;2022-10-28T09:59:22;19.00;;;9.55;;
43256;SDS011;28860;43.212;27.934;2022-10-28T10:01:47;20.92;;;9.70;;
43256;SDS011;28860;43.212;27.934;2022-10-28T10:06:46;22.55;;;11.13;;
43256;SDS011;28860;43.212;27.934;2022-10-28T10:09:32;15.52;;;9.65;;
43256;SDS011;28860;43.212;27.934;2022-10-28T10:12:08;17.13;;;9.88;;
43256;SDS011;28860;43.212;27.934;2022-10-28T10:14:46;15.43;;;9.32;;
43256;SDS011;28860;43.212;27.934;2022-10-28T10:17:23;19.52;;;9.48;;
43256;SDS011;28860;43.212;27.934;2022-10-28T10:20:00;17.60;;;9.40;;
43256;SDS011;28860;43.212;27.934;2022-10-28T10:22:36;18.05;;;9.32;;
43256;SDS011;28860;43.212;27.934;2022-10-28T10:30:24;18.30;;;8.90;;
43256;SDS011;28860;43.212;27.934;2022-10-28T10:32:57;16.80;;;8.52;;
43256;SDS011;28860;43.212;27.934;2022-10-28T10:35:25;21.58;;;9.52;;
43256;SDS011;28860;43.212;27.934;2022-10-28T10:37:58;17.15;;;8.43;;
43256;SDS011;28860;43.212;27.934;2022-10-28T10:40:27;15.48;;;7.85;;
43256;SDS011;28860;43.212;27.934;2022-10-28T10:45:49;14.40;;;8.00;;
43256;SDS011;28860;43.212;27.934;2022-10-28T10:48:24;15.00;;;8.70;;
43256;SDS011;28860;43.212;27.934;2022-10-28T10:50:56;17.48;;;8.63;;
43256;SDS011;28860;43.212;27.934;2022-10-28T10:53:26;16.85;;;8.35;;
43256;SDS011;28860;43.212;27.934;2022-10-28T10:58:48;14.75;;;7.30;;
43256;SDS011;28860;43.212;27.934;2022-10-28T11:01:19;16.15;;;6.68;;
43256;SDS011;28860;43.212;27.934;2022-10-28T11:03:56;13.45;;;7.93;;
43256;SDS011;28860;43.212;27.934;2022-10-28T11:19:28;13.97;;;7.10;;
43256;SDS011;28860;43.212;27.934;2022-10-28T11:28:16;15.30;;;6.70;;
43256;SDS011;28860;43.212;27.934;2022-10-28T11:31:20;14.45;;;7.15;;
43256;SDS011;28860;43.212;27.934;2022-10-28T11:39:59;15.90;;;7.95;;
43256;SDS011;28860;43.212;27.934;2022-10-28T11:42:44;12.70;;;6.70;;
43256;SDS011;28860;43.212;27.934;2022-10-28T11:57:25;15.88;;;7.38;;
43256;SDS011;28860;43.212;27.934;2022-10-28T12:11:06;13.13;;;7.07;;
43256;SDS011;28860;43.212;27.934;2022-10-28T12:20:36;10.90;;;6.47;;
43256;SDS011;28860;43.212;27.934;2022-10-28T12:23:20;14.55;;;6.47;;
43256;SDS011;28860;43.212;27.934;2022-10-28T12:26:01;13.07;;;6.13;;
43256;SDS011;28860;43.212;27.934;2022-10-28T12:31:24;10.52;;;6.38;;
43256;SDS011;28860;43.212;27.934;2022-10-28T12:34:15;9.82;;;6.50;;
43256;SDS011;28860;43.212;27.934;2022-10-28T12:36:48;13.77;;;8.02;;
43256;SDS011;28860;43.212;27.934;2022-10-28T12:42:41;18.33;;;7.13;;
43256;SDS011;28860;43.212;27.934;2022-10-28T12:45:16;13.43;;;6.00;;
43256;SDS011;28860;43.212;27.934;2022-10-28T12:48:06;12.02;;;6.50;;
43256;SDS011;28860;43.212;27.934;2022-10-28T12:51:05;16.20;;;6.07;;
43256;SDS011;28860;43.212;27.934;2022-10-28T12:56:20;17.50;;;5.93;;
43256;SDS011;28860;43.212;27.934;2022-10-28T12:59:10;16.67;;;7.00;;
43256;SDS011;28860;43.212;27.934;2022-10-28T13:01:39;13.73;;;6.93;;
43256;SDS011;28860;43.212;27.934;2022-10-28T13:04:12;15.15;;;6.38;;
43256;SDS011;28860;43.212;27.934;2022-10-28T13:06:49;14.35;;;6.53;;
43256;SDS011;28860;43.212;27.934;2022-10-28T13:17:59;20.00;;;8.45;;
43256;SDS011;28860;43.212;27.934;2022-10-28T13:20:52;16.00;;;6.68;;
43256;SDS011;28860;43.212;27.934;2022-10-28T13:23:42;16.60;;;7.78;;
43256;SDS011;28860;43.212;27.934;2022-10-28T13:28:58;17.20;;;7.90;;
43256;SDS011;28860;43.212;27.934;2022-10-28T13:34:14;18.27;;;6.82;;
43256;SDS011;28860;43.212;27.934;2022-10-28T13:36:43;21.02;;;7.40;;
43256;SDS011;28860;43.212;27.934;2022-10-28T13:44:51;16.50;;;8.13;;
43256;SDS011;28860;43.212;27.934;2022-10-28T13:47:37;16.95;;;7.95;;
43256;SDS011;28860;43.212;27.934;2022-10-28T13:50:09;18.70;;;8.10;;
43256;SDS011;28860;43.212;27.934;2022-10-28T13:52:46;17.08;;;7.65;;
43256;SDS011;28860;43.212;27.934;2022-10-28T13:55:48;17.23;;;7.47;;
43256;SDS011;28860;43.212;27.934;2022-10-28T14:00:50;20.63;;;7.45;;
43256;SDS011;28860;43.212;27.934;2022-10-28T14:03:23;14.07;;;7.28;;
43256;SDS011;28860;43.212;27.934;2022-10-28T14:05:52;17.58;;;7.85;;
43256;SDS011;28860;43.212;27.934;2022-10-28T14:08:33;13.68;;;7.63;;
43256;SDS011;28860;43.212;27.934;2022-10-28T14:11:07;13.52;;;7.90;;
43256;SDS011;28860;43.212;27.934;2022-10-28T14:13:38;16.60;;;7.90;;
43256;SDS011;28860;43.212;27.934;2022-10-28T14:16:23;13.30;;;7.40;;
43256;SDS011;28860;43.212;27.934;2022-10-28T14:18:56;14.75;;;8.23;;
43256;SDS011;28860;43.212;27.934;2022-10-28T14:51:20;18.55;;;8.93;;
43256;SDS011;28860;43.212;27.934;2022-10-28T14:53:50;12.35;;;9.02;;
43256;SDS011;28860;43.212;27.934;2022-10-28T14:56:22;13.80;;;8.82;;
43256;SDS011;28860;43.212;27.934;2022-10-28T14:58:51;13.68;;;9.40;;
43256;SDS011;28860;43.212;27.934;2022-10-28T15:01:25;13.38;;;8.90;;
43256;SDS011;28860;43.212;27.934;2022-10-28T15:03:57;11.35;;;8.60;;
43256;SDS011;28860;43.212;27.934;2022-10-28T15:06:33;12.57;;;8.82;;
43256;SDS011;28860;43.212;27.934;2022-10-28T16:05:43;25.23;;;12.70;;
43256;SDS011;28860;43.212;27.934;2022-10-28T16:10:51;26.05;;;13.02;;
43256;SDS011;28860;43.212;27.934;2022-10-28T16:13:23;23.90;;;12.80;;
43256;SDS011;28860;43.212;27.934;2022-10-28T16:16:05;20.25;;;12.40;;
43256;SDS011;28860;43.212;27.934;2022-10-28T16:18:38;21.77;;;10.90;;
43256;SDS011;28860;43.212;27.934;2022-10-28T16:21:21;16.63;;;10.38;;
43256;SDS011;28860;43.212;27.934;2022-10-28T16:23:51;19.63;;;10.15;;
43256;SDS011;28860;43.212;27.934;2022-10-28T16:26:21;17.65;;;10.32;;
43256;SDS011;28860;43.212;27.934;2022-10-28T16:28:47;19.05;;;10.38;;
43256;SDS011;28860;43.212;27.934;2022-10-28T16:31:14;14.98;;;9.50;;
43256;SDS011;28860;43.212;27.934;2022-10-28T16:33:41;19.90;;;10.05;;
43256;SDS011;28860;43.212;27.934;2022-10-28T16:36:07;12.52;;;8.85;;
43256;SDS011;28860;43.212;27.934;2022-10-28T16:38:32;14.43;;;10.18;;
43256;SDS011;28860;43.212;27.934;2022-10-28T16:40:58;15.13;;;10.50;;
43256;SDS011;28860;43.212;27.934;2022-10-28T16:43:25;17.17;;;10.10;;
43256;SDS011;28860;43.212;27.934;2022-10-28T16:45:54;20.85;;;10.18;;
43256;SDS011;28860;43.212;27.934;2022-10-28T16:48:25;16.63;;;10.63;;
43256;SDS011;28860;43.212;27.934;2022-10-28T16:50:54;21.95;;;10.50;;
43256;SDS011;28860;43.212;27.934;2022-10-28T16:53:23;14.88;;;10.18;;
43256;SDS011;28860;43.212;27.934;2022-10-28T16:55:50;15.93;;;10.55;;
43256;SDS011;28860;43.212;27.934;2022-10-28T16:58:23;18.90;;;10.23;;
43256;SDS011;28860;43.212;27.934;2022-10-28T17:00:51;18.35;;;11.23;;
43256;SDS011;28860;43.212;27.934;2022-10-28T17:03:17;19.05;;;10.75;;
43256;SDS011;28860;43.212;27.934;2022-10-28T17:05:43;21.30;;;11.07;;
43256;SDS011;28860;43.212;27.934;2022-10-28T17:08:09;22.08;;;11.63;;
43256;SDS011;28860;43.212;27.934;2022-10-28T17:10:35;20.52;;;11.15;;
43256;SDS011;28860;43.212;27.934;2022-10-28T17:13:01;15.23;;;10.52;;
43256;SDS011;28860;43.212;27.934;2022-10-28T17:15:28;22.58;;;11.23;;
43256;SDS011;28860;43.212;27.934;2022-10-28T17:17:54;16.73;;;10.52;;
43256;SDS011;28860;43.212;27.934;2022-10-28T17:20:21;16.38;;;10.70;;
43256;SDS011;28860;43.212;27.934;2022-10-28T17:22:47;16.60;;;9.90;;
43256;SDS011;28860;43.212;27.934;2022-10-28T17:25:13;16.90;;;10.93;;
43256;SDS011;28860;43.212;27.934;2022-10-28T17:27:39;19.33;;;10.73;;
43256;SDS011;28860;43.212;27.934;2022-10-28T17:30:06;16.50;;;10.40;;
43256;SDS011;28860;43.212;27.934;2022-10-28T17:32:32;17.85;;;10.30;;
43256;SDS011;28860;43.212;27.934;2022-10-28T17:34:58;22.42;;;10.65;;
43256;SDS011;28860;43.212;27.934;2022-10-28T17:37:23;17.20;;;11.15;;
43256;SDS011;28860;43.212;27.934;2022-10-28T17:39:49;20.58;;;10.93;;
43256;SDS011;28860;43.212;27.934;2022-10-28T17:42:16;17.30;;;10.07;;
43256;SDS011;28860;43.212;27.934;2022-10-28T17:44:41;20.83;;;10.90;;
43256;SDS011;28860;43.212;27.934;2022-10-28T17:47:07;20.10;;;11.05;;
43256;SDS011;28860;43.212;27.934;2022-10-28T17:49:37;20.58;;;11.25;;
43256;SDS011;28860;43.212;27.934;2022-10-28T17:52:03;16.83;;;10.27;;
43256;SDS011;28860;43.212;27.934;2022-10-28T17:54:29;13.23;;;10.30;;
43256;SDS011;28860;43.212;27.934;2022-10-28T17:56:56;18.50;;;11.57;;
43256;SDS011;28860;43.212;27.934;2022-10-28T17:59:22;16.23;;;11.40;;
43256;SDS011;28860;43.212;27.934;2022-10-28T18:01:48;20.00;;;10.90;;
43256;SDS011;28860;43.212;27.934;2022-10-28T18:04:15;18.45;;;11.10;;
43256;SDS011;28860;43.212;27.934;2022-10-28T18:06:41;20.23;;;11.38;;
43256;SDS011;28860;43.212;27.934;2022-10-28T18:09:10;24.33;;;11.40;;
43256;SDS011;28860;43.212;27.934;2022-10-28T18:11:36;17.08;;;11.02;;
43256;SDS011;28860;43.212;27.934;2022-10-28T18:14:04;18.13;;;12.05;;
43256;SDS011;28860;43.212;27.934;2022-10-28T18:16:30;20.80;;;11.63;;
43256;SDS011;28860;43.212;27.934;2022-10-28T18:18:55;22.98;;;12.23;;
43256;SDS011;28860;43.212;27.934;2022-10-28T18:21:22;25.23;;;11.77;;
43256;SDS011;28860;43.212;27.934;2022-10-28T18:23:52;17.02;;;11.43;;
43256;SDS011;28860;43.212;27.934;2022-10-28T18:26:18;17.92;;;12.45;;
43256;SDS011;28860;43.212;27.934;2022-10-28T18:28:45;18.58;;;11.48;;
43256;SDS011;28860;43.212;27.934;2022-10-28T18:31:15;26.63;;;12.73;;
43256;SDS011;28860;43.212;27.934;2022-10-28T18:33:42;20.77;;;12.23;;
43256;SDS011;28860;43.212;27.934;2022-10-28T18:36:13;20.17;;;12.70;;
43256;SDS011;28860;43.212;27.934;2022-10-28T18:39:01;23.73;;;12.07;;
43256;SDS011;28860;43.212;27.934;2022-10-28T18:41:29;18.58;;;11.75;;
43256;SDS011;28860;43.212;27.934;2022-10-28T18:43:59;21.35;;;12.25;;
43256;SDS011;28860;43.212;27.934;2022-10-28T18:46:26;21.77;;;12.57;;
43256;SDS011;28860;43.212;27.934;2022-10-28T18:48:56;22.45;;;12.25;;
43256;SDS011;28860;43.212;27.934;2022-10-28T18:51:22;18.83;;;12.55;;
43256;SDS011;28860;43.212;27.934;2022-10-28T18:53:48;16.13;;;12.15;;
43256;SDS011;28860;43.212;27.934;2022-10-28T18:56:18;17.38;;;12.52;;
43256;SDS011;28860;43.212;27.934;2022-10-28T18:58:46;20.10;;;11.83;;
43256;SDS011;28860;43.212;27.934;2022-10-28T19:01:17;21.38;;;13.05;;
43256;SDS011;28860;43.212;27.934;2022-10-28T19:03:51;19.05;;;12.13;;
43256;SDS011;28860;43.212;27.934;2022-10-28T19:06:19;20.52;;;12.65;;
43256;SDS011;28860;43.212;27.934;2022-10-28T19:08:50;23.30;;;12.90;;
43256;SDS011;28860;43.212;27.934;2022-10-28T19:11:17;18.52;;;13.35;;
43256;SDS011;28860;43.212;27.934;2022-10-28T19:13:43;18.95;;;12.57;;
43256;SDS011;28860;43.212;27.934;2022-10-28T19:16:09;19.00;;;12.45;;
43256;SDS011;28860;43.212;27.934;2022-10-28T19:18:36;21.98;;;13.60;;
43256;SDS011;28860;43.212;27.934;2022-10-28T19:21:06;22.77;;;12.98;;
43256;SDS011;28860;43.212;27.934;2022-10-28T19:23:35;25.35;;;13.70;;
43256;SDS011;28860;43.212;27.934;2022-10-28T19:26:01;22.00;;;13.32;;
43256;SDS011;28860;43.212;27.934;2022-10-28T19:28:28;22.42;;;13.82;;
43256;SDS011;28860;43.212;27.934;2022-10-28T19:30:59;28.77;;;17.35;;
43256;SDS011;28860;43.212;27.934;2022-10-28T19:33:27;30.80;;;19.65;;
43256;SDS011;28860;43.212;27.934;2022-10-28T19:35:58;35.05;;;19.58;;
43256;SDS011;28860;43.212;27.934;2022-10-28T19:38:33;39.53;;;19.17;;
43256;SDS011;28860;43.212;27.934;2022-10-28T19:41:01;34.40;;;19.25;;
43256;SDS011;28860;43.212;27.934;2022-10-28T19:43:31;38.55;;;20.38;;
43256;SDS011;28860;43.212;27.934;2022-10-28T19:46:03;36.63;;;20.35;;
43256;SDS011;28860;43.212;27.934;2022-10-28T19:48:35;37.72;;;19.30;;
43256;SDS011;28860;43.212;27.934;2022-10-28T19:51:05;35.83;;;21.10;;
43256;SDS011;28860;43.212;27.934;2022-10-28T20:23:49;39.05;;;24.02;;
43256;SDS011;28860;43.212;27.934;2022-10-28T20:26:21;46.25;;;24.02;;
43256;SDS011;28860;43.212;27.934;2022-10-28T20:28:48;36.28;;;24.13;;
43256;SDS011;28860;43.212;27.934;2022-10-28T20:31:18;36.83;;;23.05;;
43256;SDS011;28860;43.212;27.934;2022-10-28T20:33:53;39.70;;;22.77;;
43256;SDS011;28860;43.212;27.934;2022-10-28T20:38:57;40.38;;;24.15;;
43256;SDS011;28860;43.212;27.934;2022-10-28T20:41:27;35.08;;;23.35;;
43256;SDS011;28860;43.212;27.934;2022-10-28T20:43:55;47.10;;;23.92;;
43256;SDS011;28860;43.212;27.934;2022-10-28T20:46:21;38.60;;;23.90;;
43256;SDS011;28860;43.212;27.934;2022-10-28T20:48:48;37.15;;;23.75;;
43256;SDS011;28860;43.212;27.934;2022-10-28T20:51:21;36.17;;;20.77;;